Flight Track Log - Related Links

Times and Time Zones

All times are in EDT time to prevent confusion due to time zone crossing. See the SWA923 flight status page for this flight to view local times or setup timezone preferences in your user account.

Time Position Orientation Groundspeed Altitude Reporting Facility
EDT Latitude Longitude Course Direction KTS MPH feet Rate Location/Type
Sat 03:18:55 PM 39.9939 -82.9086 281° West 152 175 1,500  Level Indianapolis Center
Sat 03:19:13 PM 39.9964 -82.9253 281° West 149 171 2,100 1,826 Climbing Indianapolis Center
Sat 03:20:04 PM 40.0261 -82.9617 317° Northwest 171 197 3,600 1,745 Climbing Indianapolis Center
Sat 03:20:08 PM 40.0283 -82.9661 303° West 183 211 3,700 1,935 Climbing Indianapolis Center
Sat 03:21:06 PM 40.0589 -83.0294 302° West 211 243 5,600 2,824 Climbing Indianapolis Center
Sat 03:22:07 PM 40.0911 -83.1094 298° West 247 284 9,300 2,829 Climbing Indianapolis Center
Sat 03:23:09 PM 40.1272 -83.1944 299° West 264 304 11,400 2,537 Climbing Indianapolis Center
Sat 03:24:10 PM 40.1733 -83.2972 300° West 323 372 14,500 2,878 Climbing Indianapolis Center
Sat 03:25:12 PM 40.2192 -83.4019 300° West 333 383 17,300 2,878 Climbing Indianapolis Center
Sat 03:26:13 PM 40.2775 -83.5364 300° West 356 410 20,400 2,732 Climbing Indianapolis Center
Sat 03:27:15 PM 40.3286 -83.6528 300° West 369 425 22,900 2,293 Climbing Indianapolis Center
Sat 03:28:16 PM 40.3806 -83.7717 300° West 376 433 25,100 1,854 Climbing Indianapolis Center
Sat 03:29:18 PM 40.4339 -83.8958 299° West 389 448 26,700 927 Climbing Indianapolis Center
Sat 03:30:19 PM 40.4886 -84.0233 299° West 399 459 27,000 146 Climbing Indianapolis Center
Sat 03:31:21 PM 40.5436 -84.1511 300° West 404 465 27,000 774 Level Indianapolis Center
Sat 03:32:23 PM 40.5983 -84.2792 299° West 403 464 28,600 1,951 Climbing Indianapolis Center
Sat 03:33:24 PM 40.6642 -84.4344 299° West 407 468 31,000 1,951 Climbing Indianapolis Center
Sat 03:34:26 PM 40.7167 -84.5608 299° West 397 457 32,600 1,512 Climbing Indianapolis Center
Sat 03:35:27 PM 40.7706 -84.6881 299° West 398 458 34,100 1,415 Climbing Indianapolis Center
Sat 03:36:29 PM 40.8228 -84.8117 299° West 390 449 35,500 976 Climbing Indianapolis Center
Sat 03:37:30 PM 40.8389 -84.9389 280° West 380 437 36,100 780 Climbing Indianapolis Center
Sat 03:38:32 PM 40.8419 -85.1028 271° West 374 430 37,100 927 Climbing Indianapolis Center
Sat 03:39:33 PM 40.8444 -85.2378 271° West 370 426 38,000 439 Climbing Indianapolis Center
Sat 03:40:35 PM 40.8444 -85.3736 270° West 371 427 38,000  Level Indianapolis Center
Sat 03:41:36 PM 40.8447 -85.5081 270° West 370 426 38,000  Level Indianapolis Center
Sat 03:42:44 PM 40.8442 -85.6711 270° West 372 428 38,000  Level Chicago Center
Sat 03:43:46 PM 40.8444 -85.8086 270° West 373 429 38,000  Level Chicago Center
Sat 03:44:48 PM 40.8444 -85.9453 270° West 373 429 38,000  Level Chicago Center
Sat 03:45:49 PM 40.8439 -86.0847 270° West 378 435 38,000  Level Chicago Center
Sat 03:46:51 PM 40.8436 -86.2231 270° West 377 434 38,000  Level Chicago Center
Sat 03:47:53 PM 40.8428 -86.3592 270° West 374 430 38,000  Level Chicago Center
Sat 03:48:55 PM 40.8428 -86.4961 270° West 373 429 38,000  Level Chicago Center
Sat 03:49:57 PM 40.8400 -86.6594 269° West 371 427 38,000  Level Chicago Center
Sat 03:50:58 PM 40.8389 -86.7914 269° West 367 422 38,000  Level Chicago Center
Sat 03:52:00 PM 40.8383 -86.9269 270° West 368 423 38,000  Level Chicago Center
Sat 03:53:02 PM 40.8361 -87.0628 269° West 371 427 38,000  Level Chicago Center
Sat 03:54:04 PM 40.8347 -87.1994 269° West 372 428 38,000  Level Chicago Center
Sat 03:55:06 PM 40.8325 -87.3347 269° West 370 426 38,000  Level Chicago Center
Sat 03:56:08 PM 40.8297 -87.4992 269° West 372 428 38,000  Level Chicago Center
Sat 03:57:10 PM 40.8281 -87.6353 269° West 372 428 38,000  Level Chicago Center
Sat 03:58:11 PM 40.8256 -87.7731 269° West 374 430 38,000  Level Chicago Center
Sat 03:59:13 PM 40.8231 -87.9117 269° West 377 434 38,000  Level Chicago Center
Sat 04:00:15 PM 40.8214 -88.0500 269° West 377 434 38,000  Level Chicago Center
Sat 04:01:17 PM 40.8181 -88.1897 268° West 379 436 38,000  Level Chicago Center
Sat 04:02:19 PM 40.8144 -88.3300 268° West 382 440 38,000  Level Chicago Center
Sat 04:03:21 PM 40.8103 -88.4967 268° West 379 436 38,000  Level Chicago Center
Sat 04:04:23 PM 40.8078 -88.6344 269° West 377 434 38,000  Level Chicago Center
Sat 04:05:25 PM 40.8042 -88.7728 268° West 378 435 38,000  Level Chicago Center
Sat 04:06:27 PM 40.8000 -88.9006 268° West 381 438 38,000  Level Chicago Center
Sat 04:07:29 PM 40.7956 -89.0658 268° West 377 434 38,000  Level Chicago Center
Sat 04:08:31 PM 40.7906 -89.2042 267° West 379 436 38,000  Level Chicago Center
Sat 04:09:33 PM 40.7853 -89.3453 267° West 386 444 38,000  Level Chicago Center
Sat 04:10:35 PM 40.7811 -89.4853 268° West 384 442 38,000  Level Chicago Center
Sat 04:11:37 PM 40.7764 -89.6369 268° West 385 443 38,000  Level Chicago Center
Sat 04:12:38 PM 40.7736 -89.7794 269° West 389 448 38,000  Level Chicago Center
Sat 04:13:40 PM 40.7675 -89.9197 267° West 386 444 38,000  Level Chicago Center
Sat 04:14:42 PM 40.7606 -90.0594 266° West 384 442 38,000  Level Chicago Center
Sat 04:15:44 PM 40.7539 -90.2281 267° West 384 442 38,000  Level Chicago Center
Sat 04:16:46 PM 40.7492 -90.3481 267° West 382 440 38,000  Level Chicago Center
Sat 04:17:48 PM 40.7417 -90.5158 267° West 382 440 38,000  Level Chicago Center
Sat 04:18:50 PM 40.7353 -90.6561 267° West 384 442 38,000  Level Chicago Center
Sat 04:19:52 PM 40.7300 -90.7958 267° West 384 442 38,000  Level Chicago Center
Sat 04:20:05 PM 40.7289 -90.8236 267° West 382 440 38,000  Level Chicago Center
Sat 04:21:07 PM 40.7225 -90.9639 267° West 383 441 38,000  Level Chicago Center
Sat 04:22:09 PM 40.7153 -91.1025 266° West 380 437 38,000  Level Chicago Center
Sat 04:23:11 PM 40.7092 -91.2419 267° West 383 441 38,000  Level Chicago Center
Sat 04:24:12 PM 40.7008 -91.3992 266° West 384 442 38,000  Level Chicago Center
Sat 04:25:14 PM 40.6942 -91.5383 266° West 385 443 38,000  Level Chicago Center
Sat 04:26:17 PM 40.6867 -91.6789 266° West 387 445 38,000  Level Chicago Center
Sat 04:27:18 PM 40.6783 -91.8456 266° West 385 443 38,000  Level Chicago Center
Sat 04:28:20 PM 40.6711 -91.9861 266° West 387 445 38,000  Level Chicago Center
Sat 04:29:22 PM 40.6625 -92.1244 265° West 385 443 38,000  Level Chicago Center
Sat 04:31:05 PM 40.6492 -92.3761 266° West 388 447 38,000  Level Kansas City Center
Sat 04:32:06 PM 40.6406 -92.5167 265° West 391 450 38,000  Level Kansas City Center
Sat 04:33:08 PM 40.6314 -92.6567 265° West 391 450 38,000  Level Kansas City Center
Sat 04:34:10 PM 40.6228 -92.7975 265° West 392 451 38,000  Level Kansas City Center
Sat 04:35:12 PM 40.6133 -92.9378 265° West 392 451 38,000  Level Kansas City Center
Sat 04:36:14 PM 40.6039 -93.1042 266° West 385 443 38,000  Level Kansas City Center
Sat 04:37:16 PM 40.5947 -93.2431 265° West 386 444 38,000  Level Kansas City Center
Sat 04:38:18 PM 40.5850 -93.3839 265° West 390 449 38,000  Level Kansas City Center
Sat 04:39:20 PM 40.5761 -93.5228 265° West 387 445 38,000  Level Kansas City Center
Sat 04:40:00 PM 40.5667 -93.6364 264° West 389 448 38,000  Level Minneapolis Center
Sat 04:41:02 PM 40.5547 -93.7783 264° West 392 451 38,000  Level Minneapolis Center
Sat 04:42:04 PM 40.5464 -93.9203 266° West 393 452 38,000  Level Minneapolis Center
Sat 04:43:06 PM 40.5344 -94.0622 264° West 394 453 38,000  Level Minneapolis Center
Sat 04:44:08 PM 40.5247 -94.2039 265° West 394 453 38,000  Level Minneapolis Center
Sat 04:45:10 PM 40.5119 -94.3758 264° West 396 456 38,000  Level Minneapolis Center
Sat 04:46:12 PM 40.5011 -94.5172 264° West 393 452 38,000  Level Minneapolis Center
Sat 04:47:13 PM 40.4903 -94.6550 264° West 392 451 38,000  Level Minneapolis Center
Sat 04:48:15 PM 40.4794 -94.7950 264° West 387 445 38,000  Level Minneapolis Center
Sat 04:49:17 PM 40.4697 -94.9344 265° West 385 443 38,000  Level Minneapolis Center
Sat 04:50:19 PM 40.4578 -95.0997 265° West 382 440 38,000  Level Minneapolis Center
Sat 04:51:21 PM 40.4453 -95.2419 263° West 385 443 38,000  Level Minneapolis Center
Sat 04:52:23 PM 40.4325 -95.3853 263° West 392 451 38,000  Level Minneapolis Center
Sat 04:53:24 PM 40.4203 -95.5269 264° West 391 450 38,000  Level Minneapolis Center
Sat 04:54:26 PM 40.4075 -95.6683 263° West 390 449 38,000  Level Minneapolis Center
Sat 04:55:28 PM 40.3956 -95.8114 264° West 392 451 38,000  Level Minneapolis Center
Sat 04:56:30 PM 40.3833 -95.9550 264° West 395 455 38,000  Level Minneapolis Center
Sat 04:57:32 PM 40.3700 -96.0969 263° West 392 451 38,000  Level Minneapolis Center
Sat 04:58:33 PM 40.3536 -96.2711 263° West 398 458 38,000  Level Minneapolis Center
Sat 04:59:37 PM 40.3414 -96.4164 264° West 400 460 38,000  Level Minneapolis Center
Sat 05:00:39 PM 40.3261 -96.5622 262° West 402 463 38,000  Level Minneapolis Center
Sat 05:01:41 PM 40.3131 -96.7078 263° West 402 463 38,000  Level Minneapolis Center
Sat 05:02:43 PM 40.2994 -96.8536 263° West 402 463 38,000  Level Minneapolis Center
Sat 05:03:44 PM 40.2839 -96.9994 262° West 403 464 38,000  Level Minneapolis Center
Sat 05:04:46 PM 40.2681 -97.1733 263° West 402 463 38,000  Level Minneapolis Center
Sat 05:05:48 PM 40.2528 -97.3161 262° West 397 457 38,000  Level Minneapolis Center
Sat 05:06:49 PM 40.2375 -97.4622 262° West 396 456 38,000  Level Minneapolis Center
Sat 05:07:51 PM 40.2231 -97.6033 262° West 392 451 38,000  Level Minneapolis Center
Sat 05:08:53 PM 40.2078 -97.7458 262° West 393 452 38,000  Level Minneapolis Center
Sat 05:09:54 PM 40.1931 -97.8886 262° West 394 453 38,000  Level Minneapolis Center
Sat 05:10:56 PM 40.1775 -98.0336 262° West 399 459 38,000  Level Minneapolis Center
Sat 05:11:58 PM 40.1617 -98.1775 262° West 400 460 38,000  Level Minneapolis Center
Sat 05:12:59 PM 40.1464 -98.3219 262° West 400 460 38,000  Level Minneapolis Center
Sat 05:14:01 PM 40.1297 -98.4683 262° West 403 464 38,000  Level Minneapolis Center
Sat 05:15:02 PM 40.1092 -98.6422 261° West 403 464 38,000  Level Minneapolis Center
Sat 05:16:04 PM 40.0933 -98.7894 262° West 406 467 38,000  Level Minneapolis Center
Sat 05:17:06 PM 40.0769 -98.9372 262° West 408 470 38,000  Level Minneapolis Center
Sat 05:18:09 PM 40.0594 -99.0822 261° West 406 467 38,000  Level Minneapolis Center
Sat 05:19:10 PM 40.0417 -99.2256 261° West 402 463 38,000  Level Minneapolis Center
Sat 05:20:12 PM 40.0256 -99.3722 262° West 404 465 38,000  Level Minneapolis Center
Sat 05:21:13 PM 40.0075 -99.5153 261° West 402 463 38,000  Level Minneapolis Center
Sat 05:22:15 PM 39.9894 -99.6592 261° West 401 461 38,000  Level Minneapolis Center
Sat 05:23:16 PM 39.9681 -99.8331 261° West 404 465 38,000  Level Minneapolis Center
Sat 05:24:18 PM 39.9497 -99.9786 261° West 405 466 38,000  Level Minneapolis Center
Sat 05:25:19 PM 39.9317 -100.1264 261° West 408 470 38,000  Level Minneapolis Center
Sat 05:26:21 PM 39.9136 -100.2736 261° West 410 472 38,000  Level Minneapolis Center
Sat 05:27:22 PM 39.8944 -100.4208 260° West 411 473 38,000  Level Minneapolis Center
Sat 05:28:44 PM 39.8667 -100.6233 260° West 410 472 38,000  Level Denver Center
Sat 05:29:46 PM 39.8483 -100.7606 260° West 405 466 38,000  Level Denver Center
Sat 05:30:48 PM 39.8272 -100.9225 260° West 405 466 38,000  Level Denver Center
Sat 05:31:49 PM 39.8075 -101.0592 259° West 403 464 38,000  Level Denver Center
Sat 05:32:51 PM 39.7856 -101.2208 260° West 405 466 38,000  Level Denver Center
Sat 05:33:53 PM 39.7675 -101.3592 260° West 406 467 38,000  Level Denver Center
Sat 05:34:55 PM 39.7481 -101.4956 260° West 402 463 38,000  Level Denver Center
Sat 05:35:57 PM 39.7256 -101.6575 260° West 406 467 38,000  Level Denver Center
Sat 05:36:59 PM 39.7053 -101.7947 259° West 404 465 38,000  Level Denver Center
Sat 05:38:00 PM 39.6822 -101.9581 260° West 408 470 38,000  Level Denver Center
Sat 05:39:02 PM 39.6617 -102.0969 259° West 410 472 38,000  Level Denver Center
Sat 05:40:04 PM 39.6383 -102.2606 260° West 414 476 38,000  Level Denver Center
Sat 05:41:06 PM 39.6175 -102.4006 259° West 413 475 38,000  Level Denver Center
Sat 05:42:08 PM 39.5942 -102.5550 259° West 414 476 38,000  Level Denver Center
Sat 05:43:10 PM 39.5722 -102.7042 259° West 421 484 38,000  Level Denver Center
Sat 05:44:12 PM 39.5497 -102.8506 259° West 416 479 38,000  Level Denver Center
Sat 05:45:13 PM 39.5286 -103.0003 260° West 423 487 38,000  Level Denver Center
Sat 05:46:15 PM 39.5039 -103.1489 258° West 422 486 38,000  Level Denver Center
Sat 05:47:17 PM 39.4767 -103.3267 259° West 422 486 38,000  Level Denver Center
Sat 05:48:19 PM 39.4536 -103.4736 259° West 418 481 38,000  Level Denver Center
Sat 05:49:21 PM 39.4303 -103.6197 258° West 415 478 38,000  Level Denver Center
Sat 05:50:23 PM 39.4078 -103.7683 259° West 420 483 38,000  Level Denver Center
Sat 05:51:24 PM 39.3833 -103.9128 258° West 410 472 38,000  Level Denver Center
Sat 05:52:26 PM 39.3594 -104.0586 258° West 414 476 38,000  Level Denver Center
Sat 05:53:28 PM 39.3356 -104.2097 258° West 428 493 38,000  Level Denver Center
Sat 05:54:30 PM 39.3056 -104.3867 258° West 421 484 38,000  Level Denver Center
Sat 05:55:32 PM 39.2803 -104.5358 258° West 422 486 38,000  Level Denver Center
Sat 05:56:34 PM 39.2550 -104.6844 258° West 421 484 38,000  Level Denver Center
Sat 05:57:35 PM 39.2306 -104.8319 258° West 419 482 38,000 49 Level Denver Center
Sat 05:58:37 PM 39.2056 -104.9781 258° West 416 479 38,100  Climbing Denver Center
Sat 05:59:39 PM 39.1797 -105.1261 257° West 420 483 38,000 -48 Descending Denver Center
Sat 06:00:41 PM 39.1553 -105.2722 258° West 416 479 38,000  Level Denver Center
Sat 06:01:43 PM 39.1292 -105.4183 257° West 417 480 38,000  Level Denver Center
Sat 06:02:45 PM 39.1039 -105.5606 257° West 409 471 38,000  Level Denver Center
Sat 06:03:47 PM 39.0739 -105.7303 257° West 406 467 38,000  Level Denver Center
Sat 06:04:48 PM 39.0494 -105.8725 258° West 408 470 38,000  Level Denver Center
Sat 06:05:50 PM 39.0239 -106.0119 257° West 404 465 38,000  Level Denver Center
Sat 06:06:52 PM 38.9981 -106.1544 257° West 408 470 38,000  Level Denver Center
Sat 06:07:54 PM 38.9717 -106.2969 257° West 412 474 38,000  Level Denver Center
Sat 06:08:56 PM 38.9422 -106.4578 257° West 413 475 38,000  Level Denver Center
Sat 06:09:58 PM 38.9150 -106.5958 256° West 416 479 38,000  Level Denver Center
Sat 06:11:00 PM 38.8847 -106.7556 256° West 413 475 38,000  Level Denver Center
Sat 06:12:02 PM 38.8575 -106.9000 256° West 413 475 38,000  Level Denver Center
Sat 06:13:04 PM 38.8300 -107.0433 256° West 412 474 38,000  Level Denver Center
Sat 06:14:06 PM 38.8017 -107.1869 256° West 413 475 38,000  Level Denver Center
Sat 06:15:08 PM 38.7703 -107.3522 256° West 420 483 38,000  Level Denver Center
Sat 06:16:09 PM 38.7428 -107.4947 256° West 428 493 38,000  Level Denver Center
Sat 06:17:11 PM 38.7156 -107.6350 256° West 426 490 38,000  Level Denver Center
Sat 06:18:13 PM 38.6831 -107.7969 256° West 421 484 38,000  Level Denver Center
Sat 06:19:15 PM 38.6558 -107.9367 256° West 422 486 38,000  Level Denver Center
Sat 06:20:18 PM 38.6225 -108.0992 255° West 423 487 38,000  Level Denver Center
Sat 06:21:19 PM 38.5947 -108.2369 256° West 419 482 38,000  Level Denver Center
Sat 06:22:21 PM 38.5622 -108.4000 256° West 420 483 38,000  Level Denver Center
Sat 06:23:23 PM 38.5339 -108.5386 255° West 421 484 38,000  Level Denver Center
Sat 06:24:25 PM 38.5008 -108.7000 255° West 419 482 38,000  Level Denver Center
Sat 06:25:27 PM 38.4719 -108.8383 255° West 420 483 38,000  Level Denver Center
Sat 06:26:29 PM 38.4425 -108.9769 255° West 423 487 38,000  Level Denver Center
Sat 06:27:31 PM 38.4086 -109.1403 255° West 426 490 38,000  Level Denver Center
Sat 06:28:33 PM 38.3792 -109.2817 255° West 431 496 38,000  Level Denver Center
Sat 06:29:35 PM 38.3425 -109.4436 254° West 426 490 38,000  Level Denver Center
Sat 06:30:37 PM 38.3125 -109.5853 255° West 430 495 38,000  Level Denver Center
Sat 06:31:39 PM 38.2775 -109.7464 255° West 425 489 38,000  Level Denver Center
Sat 06:32:40 PM 38.2469 -109.8875 255° West 430 495 38,000  Level Denver Center
Sat 06:33:42 PM 38.2108 -110.0500 254° West 428 493 38,000  Level Denver Center
Sat 06:34:44 PM 38.1803 -110.1897 254° West 429 494 38,000 -435 Level Denver Center
Sat 06:35:46 PM 38.1447 -110.3275 252° West 429 494 37,100 -909 Descending Denver Center
Sat 06:36:56 PM 38.0736 -110.5069 243° Southwest 441 507 36,000 -532 Descending Salt Lake Center
Sat 06:37:50 PM 38.0289 -110.6189 243° Southwest 446 513 36,000  Level Denver Center
Sat 06:38:52 PM 37.9653 -110.7753 243° Southwest 448 516 36,000  Level Denver Center
Sat 06:39:53 PM 37.9094 -110.9169 243° Southwest 450 518 36,000  Level Denver Center
Sat 06:40:55 PM 37.8539 -111.0583 244° Southwest 449 517 36,000  Level Denver Center
Sat 06:41:57 PM 37.7958 -111.1994 243° Southwest 452 520 36,000  Level Denver Center
Sat 06:42:58 PM 37.7394 -111.3406 243° Southwest 450 518 36,000 -378 Level Denver Center
Sat 06:44:04 PM 37.6697 -111.5111 243° Southwest 454 522 35,200 -844 Descending Salt Lake Center
Sat 06:45:06 PM 37.6122 -111.6517 243° Southwest 452 520 34,200 -976 Descending Salt Lake Center
Sat 06:46:07 PM 37.5547 -111.7900 242° Southwest 448 516 33,200 -934 Descending Salt Lake Center
Sat 06:47:08 PM 37.4981 -111.9297 243° Southwest 446 513 32,300 -590 Descending Salt Lake Center
Sat 06:48:09 PM 37.4406 -112.0686 242° Southwest 447 514 32,000 -186 Descending Salt Lake Center
Sat 06:48:45 PM 37.4067 -112.1522 243° Southwest 445 512 32,000  Level Los Angeles Center
Sat 06:49:47 PM 37.3472 -112.2919 242° Southwest 447 514 32,000  Level Los Angeles Center
Sat 06:51:00 PM 37.2883 -112.4322 242° Southwest 450 518 32,000 -122 Level Los Angeles Center
Sat 06:52:14 PM 37.2161 -112.6006 242° Southwest 453 521 31,700 -745 Descending Los Angeles Center
Sat 06:53:17 PM 37.1317 -112.7997 242° Southwest 460 529 30,300 -1,139 Descending Los Angeles Center
Sat 06:54:31 PM 37.0592 -112.9697 242° Southwest 460 529 29,100 -926 Descending Los Angeles Center
Sat 06:55:33 PM 36.9989 -113.1075 241° Southwest 451 519 28,200 -532 Descending Los Angeles Center
Sat 06:56:35 PM 36.9408 -113.2450 242° Southwest 447 514 28,000 -97 Descending Los Angeles Center
Sat 06:57:37 PM 36.8822 -113.3800 242° Southwest 442 509 28,000  Level Los Angeles Center
Sat 06:58:38 PM 36.8242 -113.5153 242° Southwest 442 509 28,000 -780 Level Los Angeles Center
Sat 06:59:40 PM 36.7650 -113.6494 241° Southwest 441 507 26,400 -1,935 Descending Los Angeles Center
Sat 07:00:42 PM 36.7089 -113.7792 242° Southwest 428 493 24,000 -2,516 Descending Los Angeles Center
Sat 07:01:44 PM 36.6439 -113.9283 242° Southwest 411 473 21,200 -2,419 Descending Los Angeles Center
Sat 07:02:46 PM 36.5900 -114.0486 241° Southwest 400 460 19,000 -1,984 Descending Los Angeles Center
Sat 07:03:48 PM 36.5383 -114.1628 241° Southwest 381 438 17,100 -1,951 Descending Los Angeles Center
Sat 07:04:49 PM 36.4914 -114.2689 241° Southwest 367 422 15,000 -2,348 Descending Los Angeles Center
Sat 07:04:57 PM 36.4775 -114.3017 242° Southwest 368 423 14,400 -2,129 Descending Los Angeles Center
Sat 07:05:51 PM 36.4414 -114.3772 239° Southwest 362 417 12,800 -1,784 Descending Los Angeles Center
Sat 07:06:11 PM 36.4172 -114.4292 240° Southwest 352 405 12,200 -1,258 Descending Los Angeles Center
Sat 07:06:53 PM 36.3622 -114.4811 217° Southwest 354 407 11,500 -1,000 Descending Los Angeles Center
Sat 07:07:11 PM 36.3386 -114.5042 218° Southwest 358 412 11,200 -968 Descending Los Angeles Center
Sat 07:07:55 PM 36.2806 -114.5492 212° Southwest 352 405 10,500 -1,075 Descending Los Angeles Center
Sat 07:08:18 PM 36.2494 -114.5797 218° Southwest 331 381 10,000 -1,000 Descending Los Angeles Center
Sat 07:09:13 PM 36.1892 -114.6297 214° Southwest 303 349 9,200 -1,069 Descending Los Angeles Center
Sat 07:09:59 PM 36.1417 -114.6681 213° Southwest 300 345 8,200 -1,309 Descending Los Angeles Center
Sat 07:10:08 PM 36.1294 -114.6817 222° Southwest 288 331 8,000 -194 Descending Los Angeles Center
Sat 07:11:01 PM 36.0800 -114.7214 213° Southwest 284 327 8,000  Level Los Angeles Center
Sat 07:11:09 PM 36.0761 -114.7342 249° West 245 282 8,000 -677 Level Los Angeles Center
Sat 07:12:03 PM 36.0722 -114.7958 266° West 254 292 7,300 -800 Descending Los Angeles Center
Sat 07:12:09 PM 36.0731 -114.8178 273° West 228 262 7,200 -896 Descending Los Angeles Center
Sat 07:13:10 PM 36.0731 -114.8872 270° West 201 231 6,300 -627 Descending Los Angeles Center
Sat 07:13:16 PM 36.0733 -114.8686 89° East 229 264 6,500 -1,355 Climbing Los Angeles Center
Sat 07:14:12 PM 36.0739 -114.9506 271° West 183 211 4,900 -1,619 Descending Los Angeles Center
Sat 07:14:19 PM 36.0731 -114.9572 261° West 199 229 4,800 -1,100 Descending Los Angeles Center
Sat 07:15:12 PM 36.0731 -115.0150 270° West 182 209 3,800 -1,065 Descending Los Angeles Center
Sat 07:15:21 PM 36.0733 -115.0194 274° West 187 215 3,700 -787 Descending Los Angeles Center
Sat 07:16:13 PM 36.0736 -115.0678 270° West 149 171 3,000 -689 Descending Los Angeles Center
Sat 07:16:22 PM 36.0733 -115.0739 267° West 174 200 3,000 -787 Level Los Angeles Center
Sat 07:17:14 PM 36.0739 -115.1183 271° West 145 167 2,200 -774 Descending Los Angeles Center
Sat 07:17:24 PM 36.0733 -115.1219 259° West 156 180 2,200  Level Los Angeles Center
Sat 07:19:00 PM 36.0667 -115.1500 219° Southwest  Level FlightAware Approximate

Login

Don't have an account? Register now (free) for customized features, flight alerts, and more!